Wetterdaten: aktuell Dienstag, 31.03.2015 13:39
Datum Zeit Temperatur Feuchte Luftdruck Regen Wind Richtung Richtung Taupunkt Windchill
31.03.2015 13:39 8,8 C 78 % 999,7 hPa 0,4 l/m 27,6 km/h (4 Bft) _ 65365 5,2 C 5,2 C
31.03.2015 12:39 9,2 C 70 % 997,6 hPa 0,4 l/m 27,6 km/h (4 Bft) _ 65365 4,0 C 5,7 C
31.03.2015 11:39 9,4 C 72 % 996,5 hPa 0,0 l/m 27,6 km/h (4 Bft) _ 65365 4,6 C 6,0 C
31.03.2015 10:39 9,2 C 79 % 995,5 hPa 0,0 l/m 27,6 km/h (4 Bft) _ 65365 5,8 C 5,7 C
31.03.2015 09:39 9,3 C 85 % 994,5 hPa 0,0 l/m 27,6 km/h (4 Bft) _ 65365 6,9 C 5,8 C
31.03.2015 08:39 9,2 C 96 % 992,5 hPa 1,1 l/m 27,6 km/h (4 Bft) _ 65365 8,6 C 5,7 C
31.03.2015 07:39 9,2 C 97 % 991,4 hPa 1,1 l/m 27,6 km/h (4 Bft) _ 65365 8,7 C 5,7 C
31.03.2015 06:39 9,4 C 99 % 991,4 hPa 1,1 l/m 27,6 km/h (4 Bft) _ 65365 9,3 C 6,0 C
31.03.2015 05:39 9,7 C 98 % 991,4 hPa 1,1 l/m 27,6 km/h (4 Bft) _ 65365 9,4 C 6,4 C
31.03.2015 04:39 8,8 C 99 % 991,5 hPa 2,2 l/m 27,6 km/h (4 Bft) _ 65365 8,7 C 5,2 C
31.03.2015 03:39 5,8 C 99 % 994,8 hPa 3,6 l/m 27,6 km/h (4 Bft) _ 65365 5,7 C 1,3 C
31.03.2015 02:39 4,7 C 97 % 998,0 hPa 4,3 l/m 27,6 km/h (4 Bft) _ 65365 4,3 C -0,1 C
31.03.2015 01:39 4,3 C 94 % 1001,1 hPa 1,8 l/m 27,6 km/h (4 Bft) _ 65365 3,4 C -0,6 C
31.03.2015 00:39 4,5 C 87 % 1005,1 hPa 1,1 l/m 27,6 km/h (4 Bft) _ 65365 2,5 C -0,4 C
30.03.2015 23:39 5,4 C 72 % 1006,1 hPa 0,0 l/m 27,6 km/h (4 Bft) _ 65365 0,8 C 0,8 C
30.03.2015 22:39 4,9 C 71 % 1008,2 hPa 0,0 l/m 27,6 km/h (4 Bft) _ 65365 0,1 C 0,1 C
30.03.2015 21:39 5,2 C 68 % 1009,2 hPa 0,0 l/m 27,6 km/h (4 Bft) _ 65365 -0,2 C 0,5 C
30.03.2015 20:39 5,5 C 65 % 1010,2 hPa 0,0 l/m 27,6 km/h (4 Bft) _ 65365 -0,5 C 0,9 C
30.03.2015 19:39 6,8 C 60 % 1010,1 hPa 0,0 l/m 27,6 km/h (4 Bft) _ 65365 -0,4 C 2,6 C
30.03.2015 18:39 7,8 C 59 % 1010,0 hPa 0,0 l/m 27,6 km/h (4 Bft) _ 65365 0,3 C 3,9 C
30.03.2015 17:39 8,5 C 58 % 1008,9 hPa 0,0 l/m 27,6 km/h (4 Bft) _ 65365 0,7 C 4,8 C
30.03.2015 16:39 8,7 C 65 % 1007,9 hPa 0,0 l/m 27,6 km/h (4 Bft) _ 65365 2,5 C 5,1 C
30.03.2015 15:39 7,9 C 67 % 1007,9 hPa 0,0 l/m 27,6 km/h (4 Bft) _ 65365 2,2 C 4,0 C
30.03.2015 14:39 7,9 C 72 % 1005,9 hPa 0,0 l/m 27,6 km/h (4 Bft) _ 65365 3,2 C 4,0 C
30.03.2015 14:00 7,1 C 81 % 1005,9 hPa 0,0 l/m 27,6 km/h (4 Bft) _ 65365 4,1 C 3,0 C
_ Min-Zeit 00:57 18:03 05:24 - 14:00 - - 20:24 00:57
Minimum _ 4,3 C 55 % 991,4 hPa - 27,6 km/h (4 Bft) - - -0,8 C -0,6 C
_ Max-Zeit 05:24 03:24 21:06 00:21 14:00 - - 05:12 05:24
Maximum _ 9,7 C 99 % 1010,2 hPa 0,4 l/m 27,6 km/h
N (4 Bft)
- - 9,5 C 6,4 C
Durchschnitt _ 7,4 C 80 % 1001,5 hPa #18,0 l/m 27,6 km/h (4 Bft) N - 4,0 C 3,4 C